Terminal Aerodrome Forecast
Issued by NWS

Home | Current Version | Previous Version | Text Only | Print | Product List | Glossary On
Versions: 1 2 3 4 5 6 7 8 9 10 11 12 13 14 15 16
000
FTUS46 KLOX 251700
TAFPMD
TAF
KPMD 251738Z 2518/2618 26020G27KT P6SM BKN120
      TEMPO 2518/2521 -RA BKN080
     FM252100 27032G42KT 3SM BLDU BKN080 BKN150
     FM260300 28025G35KT P6SM BKN150
     FM260800 28015G25KT P6SM SCT150=

USA.gov is the U.S. government's official web portal to all federal, state and local government web resources and services.